Time;durP1;ratioP1;P1;durP2;ratioP2;P2;SDS_P1;SDS_P2;PMS_P1;PMS_P2;Temp;Humidity;BMP_temperature;BMP_pressure;BME280_temperature;BME280_humidity;BME280_pressure;Samples;Min_cycle;Max_cycle;Signal;HPM_P1;HPM_P2
2022/12/06 00:00:30;;;;;;;14.88;10.95;;;;;;;;;;5041248;28;20233;-67
2022/12/06 00:02:56;;;;;;;16.67;11.80;;;;;;;;;;5041222;27;20229;-67
2022/12/06 00:05:24;;;;;;;16.63;11.93;;;;;;;;;;5040787;28;20194;-67
2022/12/06 00:07:50;;;;;;;15.00;11.65;;;;;;;;;;5040856;28;20432;-67
2022/12/06 00:10:17;;;;;;;19.65;12.18;;;;;;;;;;5041188;28;20261;-67
2022/12/06 00:12:43;;;;;;;15.82;12.60;;;;;;;;;;5041150;28;20364;-68
2022/12/06 00:15:10;;;;;;;17.50;12.68;;;;;;;;;;5040990;27;20225;-68
2022/12/06 00:17:36;;;;;;;16.80;12.18;;;;;;;;;;5040479;28;20205;-68
2022/12/06 00:20:03;;;;;;;15.95;12.23;;;;;;;;;;5040631;28;20250;-68
2022/12/06 00:22:31;;;;;;;15.40;12.02;;;;;;;;;;5040964;28;20392;-68
2022/12/06 00:24:57;;;;;;;18.58;12.85;;;;;;;;;;5040755;28;20198;-68
2022/12/06 00:27:23;;;;;;;16.85;12.57;;;;;;;;;;5040575;28;20249;-68
2022/12/06 00:29:50;;;;;;;17.23;12.20;;;;;;;;;;5040546;28;20243;-68
2022/12/06 00:32:16;;;;;;;16.25;12.10;;;;;;;;;;5040573;28;20240;-68
2022/12/06 00:34:42;;;;;;;16.80;12.48;;;;;;;;;;5040447;28;20206;-67
2022/12/06 00:37:09;;;;;;;18.42;12.90;;;;;;;;;;5040607;28;20316;-68
2022/12/06 00:39:36;;;;;;;15.93;11.95;;;;;;;;;;5040392;28;20237;-68
2022/12/06 00:42:03;;;;;;;15.30;12.00;;;;;;;;;;5040187;28;20236;-68
2022/12/06 00:44:29;;;;;;;15.30;11.43;;;;;;;;;;5040513;28;20229;-68
2022/12/06 00:46:55;;;;;;;15.73;11.60;;;;;;;;;;5040364;28;20195;-68
2022/12/06 00:49:22;;;;;;;15.27;11.40;;;;;;;;;;5040106;28;20237;-68
2022/12/06 00:51:48;;;;;;;15.50;11.32;;;;;;;;;;5040487;28;20240;-67
2022/12/06 00:54:15;;;;;;;14.23;10.95;;;;;;;;;;5040562;28;20270;-68
2022/12/06 00:56:42;;;;;;;18.15;11.82;;;;;;;;;;5040548;28;20222;-68
2022/12/06 00:59:09;;;;;;;15.90;11.10;;;;;;;;;;5039176;28;20220;-67
2022/12/06 01:01:36;;;;;;;15.27;11.18;;;;;;;;;;5040241;28;20234;-68
2022/12/06 01:04:03;;;;;;;17.23;11.23;;;;;;;;;;5040206;27;20298;-68
2022/12/06 01:06:31;;;;;;;15.20;11.75;;;;;;;;;;5040015;28;20270;-68
2022/12/06 01:08:58;;;;;;;15.18;11.25;;;;;;;;;;5039692;28;20205;-68
2022/12/06 01:11:25;;;;;;;19.45;11.70;;;;;;;;;;5040098;28;20198;-68
2022/12/06 01:13:53;;;;;;;17.13;11.05;;;;;;;;;;5039854;28;20198;-68
2022/12/06 01:16:20;;;;;;;13.48;10.52;;;;;;;;;;5039762;28;20218;-68
2022/12/06 01:18:46;;;;;;;21.13;12.25;;;;;;;;;;5040078;28;20424;-68
2022/12/06 01:21:14;;;;;;;15.02;11.40;;;;;;;;;;5039678;28;20296;-68
2022/12/06 01:23:40;;;;;;;16.88;11.77;;;;;;;;;;5039903;28;20206;-68
2022/12/06 01:26:07;;;;;;;17.27;11.48;;;;;;;;;;5039523;28;20201;-68
2022/12/06 01:28:34;;;;;;;13.93;11.15;;;;;;;;;;5039443;28;20413;-67
2022/12/06 01:31:05;;;;;;;18.80;11.35;;;;;;;;;;5039985;28;20198;-68
2022/12/06 01:33:32;;;;;;;15.32;11.45;;;;;;;;;;5039904;28;20205;-68
2022/12/06 01:35:58;;;;;;;13.35;10.63;;;;;;;;;;5039733;28;20234;-67
2022/12/06 01:38:24;;;;;;;15.93;11.32;;;;;;;;;;5039405;28;20497;-67
2022/12/06 01:40:51;;;;;;;19.02;11.63;;;;;;;;;;5039630;28;20202;-67
2022/12/06 01:43:30;;;;;;;12.88;10.13;;;;;;;;;;5039355;28;20388;-67
2022/12/06 01:45:57;;;;;;;20.42;11.30;;;;;;;;;;5039462;28;20229;-68
2022/12/06 01:48:25;;;;;;;13.02;10.63;;;;;;;;;;5039181;28;20212;-68
2022/12/06 01:50:53;;;;;;;16.67;10.80;;;;;;;;;;5039463;28;20204;-68
2022/12/06 01:53:19;;;;;;;13.13;10.05;;;;;;;;;;5039312;28;20387;-68
2022/12/06 01:55:46;;;;;;;11.15;9.18;;;;;;;;;;5039242;28;20218;-67
2022/12/06 01:58:16;;;;;;;11.70;9.40;;;;;;;;;;5039222;28;20220;-67
2022/12/06 02:00:43;;;;;;;10.50;8.30;;;;;;;;;;5039332;28;20220;-67
2022/12/06 02:03:12;;;;;;;10.73;9.48;;;;;;;;;;5039343;28;20472;-67
2022/12/06 02:05:40;;;;;;;13.73;9.20;;;;;;;;;;5039587;28;20198;-67
2022/12/06 02:08:08;;;;;;;11.20;9.10;;;;;;;;;;5039008;28;20190;-68
2022/12/06 02:10:35;;;;;;;9.45;8.38;;;;;;;;;;5039333;28;20497;-68
2022/12/06 02:13:01;;;;;;;10.13;9.02;;;;;;;;;;5039336;28;20220;-68
2022/12/06 02:15:31;;;;;;;11.00;8.35;;;;;;;;;;5039166;28;20392;-68
2022/12/06 02:18:03;;;;;;;11.15;8.20;;;;;;;;;;5038967;28;20383;-67
2022/12/06 02:20:32;;;;;;;9.60;8.05;;;;;;;;;;5038888;28;20458;-68
2022/12/06 02:23:19;;;;;;;12.63;8.80;;;;;;;;;;5038851;28;20198;-68
2022/12/06 02:26:02;;;;;;;9.82;7.78;;;;;;;;;;5055463;28;20516;-68
2022/12/06 02:28:44;;;;;;;8.93;8.02;;;;;;;;;;5038806;28;20399;-68
2022/12/06 02:31:14;;;;;;;9.48;8.48;;;;;;;;;;5038814;28;20198;-68
2022/12/06 02:33:44;;;;;;;9.70;8.43;;;;;;;;;;5039003;28;20385;-68
2022/12/06 02:36:15;;;;;;;11.45;8.80;;;;;;;;;;5038804;28;20504;-68
2022/12/06 02:38:44;;;;;;;9.65;8.45;;;;;;;;;;5038619;28;20198;-68
2022/12/06 02:41:13;;;;;;;10.80;8.82;;;;;;;;;;5038658;28;20268;-68
2022/12/06 02:43:41;;;;;;;12.32;8.88;;;;;;;;;;5038628;28;20472;-68
2022/12/06 02:46:08;;;;;;;15.98;9.77;;;;;;;;;;5038725;28;20200;-67
2022/12/06 02:48:36;;;;;;;11.50;9.27;;;;;;;;;;5038032;28;20261;-67
2022/12/06 02:51:05;;;;;;;10.43;9.30;;;;;;;;;;5038521;28;20198;-67
2022/12/06 02:53:33;;;;;;;10.93;9.05;;;;;;;;;;5038595;28;20204;-68
2022/12/06 02:56:00;;;;;;;11.70;8.80;;;;;;;;;;5038634;28;20514;-68
2022/12/06 02:58:26;;;;;;;12.10;9.15;;;;;;;;;;5038401;28;20198;-67
2022/12/06 03:00:54;;;;;;;9.95;8.95;;;;;;;;;;5038651;28;20216;-67
2022/12/06 03:03:34;;;;;;;11.13;9.50;;;;;;;;;;5038455;28;20204;-67
2022/12/06 03:06:12;;;;;;;11.27;8.98;;;;;;;;;;5038508;28;20266;-67
2022/12/06 03:08:42;;;;;;;10.30;8.90;;;;;;;;;;5038303;28;20269;-67
2022/12/06 03:11:08;;;;;;;13.85;9.00;;;;;;;;;;5038555;28;20220;-68
2022/12/06 03:13:39;;;;;;;11.80;9.30;;;;;;;;;;5038056;28;20198;-68
2022/12/06 03:16:09;;;;;;;9.60;8.60;;;;;;;;;;5038185;28;20407;-68
2022/12/06 03:18:37;;;;;;;9.85;8.55;;;;;;;;;;5038163;28;20198;-68
2022/12/06 03:21:06;;;;;;;8.57;7.68;;;;;;;;;;5038106;28;20212;-68
2022/12/06 03:23:36;;;;;;;8.48;7.43;;;;;;;;;;5040713;28;20204;-68
2022/12/06 03:26:05;;;;;;;9.27;8.43;;;;;;;;;;5041651;28;20193;-68
2022/12/06 03:28:31;;;;;;;10.27;8.50;;;;;;;;;;5041379;28;20281;-68
2022/12/06 03:31:00;;;;;;;9.00;8.07;;;;;;;;;;5041352;28;20282;-68
2022/12/06 03:33:27;;;;;;;9.48;8.52;;;;;;;;;;5041707;28;20198;-68
2022/12/06 03:35:55;;;;;;;13.18;8.38;;;;;;;;;;5041289;28;20315;-68
2022/12/06 03:38:25;;;;;;;9.20;8.02;;;;;;;;;;5041097;28;20233;-68
2022/12/06 03:40:53;;;;;;;10.52;8.38;;;;;;;;;;5041306;28;20265;-67
2022/12/06 03:43:20;;;;;;;9.63;8.60;;;;;;;;;;5041151;28;20200;-67
2022/12/06 03:45:52;;;;;;;10.00;8.88;;;;;;;;;;5041220;28;20269;-67
2022/12/06 03:48:21;;;;;;;10.82;8.23;;;;;;;;;;5041470;28;20276;-67
2022/12/06 03:50:50;;;;;;;12.95;8.68;;;;;;;;;;5041186;28;20198;-68
2022/12/06 03:53:16;;;;;;;9.55;8.15;;;;;;;;;;5041310;28;20198;-68
2022/12/06 03:55:43;;;;;;;11.20;8.50;;;;;;;;;;5041081;28;20202;-68
2022/12/06 03:58:11;;;;;;;10.40;8.38;;;;;;;;;;5041088;27;20202;-68
2022/12/06 04:00:37;;;;;;;11.68;8.35;;;;;;;;;;5041053;28;20416;-68
2022/12/06 04:03:04;;;;;;;10.00;8.73;;;;;;;;;;5041149;28;20225;-68
2022/12/06 04:05:30;;;;;;;9.55;7.80;;;;;;;;;;5041048;28;20197;-68
2022/12/06 04:07:56;;;;;;;9.77;8.38;;;;;;;;;;5040973;28;20194;-68
2022/12/06 04:10:23;;;;;;;9.65;7.60;;;;;;;;;;5040711;28;20520;-68
2022/12/06 04:13:01;;;;;;;9.32;8.18;;;;;;;;;;5041072;28;20498;-67
2022/12/06 04:15:30;;;;;;;9.80;8.70;;;;;;;;;;5040939;28;20263;-68
2022/12/06 04:18:12;;;;;;;11.13;8.52;;;;;;;;;;5040699;28;20236;-68
2022/12/06 04:23:27;;;;;;;11.30;9.68;;;;;;;;;;5040697;28;20223;-68
2022/12/06 04:25:53;;;;;;;11.10;8.88;;;;;;;;;;5040788;28;20396;-68
2022/12/06 04:39:17;;;;;;;12.57;8.82;;;;;;;;;;5040448;28;20197;-68
2022/12/06 04:44:27;;;;;;;12.48;8.50;;;;;;;;;;5040580;28;20213;-67
2022/12/06 04:46:55;;;;;;;9.90;8.55;;;;;;;;;;5040250;28;20200;-68
2022/12/06 04:49:21;;;;;;;11.88;8.27;;;;;;;;;;5040210;28;20226;-68
2022/12/06 04:51:47;;;;;;;11.48;8.48;;;;;;;;;;5040749;28;20265;-68
2022/12/06 04:54:14;;;;;;;10.73;8.77;;;;;;;;;;5040064;28;20204;-68
2022/12/06 04:56:40;;;;;;;11.68;8.52;;;;;;;;;;5040377;28;20232;-68
2022/12/06 04:59:06;;;;;;;28.35;14.55;;;;;;;;;;5039873;28;20221;-68
2022/12/06 05:01:33;;;;;;;63.55;27.75;;;;;;;;;;5040190;28;20220;-68
2022/12/06 05:04:00;;;;;;;24.67;14.80;;;;;;;;;;5040646;28;20202;-68
2022/12/06 05:06:26;;;;;;;11.10;9.68;;;;;;;;;;5040145;28;20189;-68
2022/12/06 05:08:53;;;;;;;11.93;9.52;;;;;;;;;;5039905;28;20216;-68
2022/12/06 05:11:19;;;;;;;11.88;9.35;;;;;;;;;;5040077;28;20261;-68
2022/12/06 05:13:45;;;;;;;12.48;9.65;;;;;;;;;;5040353;28;20562;-68
2022/12/06 05:16:12;;;;;;;10.70;9.57;;;;;;;;;;5039631;28;20368;-68
2022/12/06 05:18:38;;;;;;;10.85;9.23;;;;;;;;;;5039665;28;20198;-68
2022/12/06 05:21:07;;;;;;;12.38;8.90;;;;;;;;;;5039489;28;20212;-68
2022/12/06 05:23:34;;;;;;;10.23;8.57;;;;;;;;;;5039660;28;20204;-68
2022/12/06 05:26:01;;;;;;;9.77;7.93;;;;;;;;;;5040123;28;20233;-68
2022/12/06 05:28:28;;;;;;;10.20;8.32;;;;;;;;;;5039696;27;20424;-68
2022/12/06 05:30:54;;;;;;;9.27;6.93;;;;;;;;;;5039870;28;20362;-68
2022/12/06 05:33:21;;;;;;;9.77;8.07;;;;;;;;;;5039509;28;20202;-68
2022/12/06 05:35:47;;;;;;;8.95;7.45;;;;;;;;;;5039534;28;20211;-68
2022/12/06 05:38:15;;;;;;;9.68;8.23;;;;;;;;;;5039184;28;20406;-68
2022/12/06 05:40:41;;;;;;;8.27;7.50;;;;;;;;;;5039354;28;20198;-68
2022/12/06 05:43:07;;;;;;;9.25;8.18;;;;;;;;;;5039567;28;20204;-68
2022/12/06 05:45:34;;;;;;;8.95;8.05;;;;;;;;;;5039176;28;20204;-68
2022/12/06 05:48:00;;;;;;;10.50;7.82;;;;;;;;;;5039255;28;20193;-68
2022/12/06 05:50:26;;;;;;;12.10;9.27;;;;;;;;;;5039319;28;20197;-67
2022/12/06 05:52:53;;;;;;;9.52;8.27;;;;;;;;;;5039535;28;20208;-67
2022/12/06 05:55:21;;;;;;;10.38;8.63;;;;;;;;;;5039534;28;20243;-67
2022/12/06 05:57:47;;;;;;;10.40;8.25;;;;;;;;;;5039178;28;20412;-67
2022/12/06 06:00:14;;;;;;;10.57;9.05;;;;;;;;;;5039438;28;20212;-67
2022/12/06 06:02:41;;;;;;;13.50;8.20;;;;;;;;;;5039358;28;20393;-67
2022/12/06 06:05:07;;;;;;;10.13;8.40;;;;;;;;;;5039176;28;20269;-68
2022/12/06 06:07:34;;;;;;;8.77;7.82;;;;;;;;;;5038658;28;20194;-67
2022/12/06 06:10:00;;;;;;;9.38;8.07;;;;;;;;;;5039160;28;20197;-68
2022/12/06 06:12:28;;;;;;;9.70;7.82;;;;;;;;;;5039109;28;20198;-68
2022/12/06 06:14:54;;;;;;;8.63;7.82;;;;;;;;;;5038850;28;20507;-67
2022/12/06 06:17:20;;;;;;;9.82;8.00;;;;;;;;;;5038620;28;20214;-68
2022/12/06 06:19:46;;;;;;;9.73;8.05;;;;;;;;;;5038317;28;20220;-68
2022/12/06 06:22:13;;;;;;;8.57;7.75;;;;;;;;;;5038991;28;20198;-68
2022/12/06 06:24:40;;;;;;;11.00;7.65;;;;;;;;;;5038755;28;20207;-67
2022/12/06 06:27:06;;;;;;;8.70;7.90;;;;;;;;;;5038548;28;20194;-68
2022/12/06 06:29:34;;;;;;;10.30;8.82;;;;;;;;;;5038378;28;20204;-68
2022/12/06 06:32:00;;;;;;;8.20;7.40;;;;;;;;;;5038517;28;20202;-68
2022/12/06 06:34:27;;;;;;;10.68;8.35;;;;;;;;;;5038784;28;20478;-68
2022/12/06 06:36:53;;;;;;;8.52;7.57;;;;;;;;;;5038630;28;20225;-67
2022/12/06 06:39:19;;;;;;;8.77;7.90;;;;;;;;;;5038312;28;20198;-70
2022/12/06 06:41:46;;;;;;;8.90;7.95;;;;;;;;;;5038416;28;20211;-70
2022/12/06 06:44:12;;;;;;;9.23;8.02;;;;;;;;;;5038543;28;20204;-70
2022/12/06 06:46:40;;;;;;;8.98;7.88;;;;;;;;;;5038292;28;20205;-70
2022/12/06 06:49:07;;;;;;;10.23;8.40;;;;;;;;;;5038433;28;20540;-70
2022/12/06 06:51:33;;;;;;;12.05;8.35;;;;;;;;;;5038455;28;20204;-70
2022/12/06 06:54:00;;;;;;;9.98;8.35;;;;;;;;;;5038382;28;20198;-70
2022/12/06 06:56:26;;;;;;;11.05;8.15;;;;;;;;;;5038184;28;20513;-70
2022/12/06 06:58:53;;;;;;;10.73;8.32;;;;;;;;;;5040515;28;20427;-70
2022/12/06 07:01:20;;;;;;;10.70;8.82;;;;;;;;;;5041812;28;20198;-70
2022/12/06 07:03:47;;;;;;;9.48;8.00;;;;;;;;;;5028262;28;20210;-70
2022/12/06 07:06:14;;;;;;;10.45;8.25;;;;;;;;;;5029675;28;20566;-58
2022/12/06 07:08:41;;;;;;;10.05;8.50;;;;;;;;;;5031224;28;20206;-61
2022/12/06 07:11:07;;;;;;;8.73;7.82;;;;;;;;;;5035908;28;20209;-58
2022/12/06 07:13:33;;;;;;;8.93;8.00;;;;;;;;;;5035798;28;20235;-60
2022/12/06 07:16:02;;;;;;;8.88;7.93;;;;;;;;;;5037295;28;20692;-59
2022/12/06 07:18:28;;;;;;;8.65;7.72;;;;;;;;;;5038030;28;20229;-58
2022/12/06 07:20:59;;;;;;;9.90;7.50;;;;;;;;;;5039045;28;20229;-57
2022/12/06 07:23:26;;;;;;;8.90;8.00;;;;;;;;;;5019248;28;20207;-58
2022/12/06 07:25:59;;;;;;;9.30;7.93;;;;;;;;;;5024957;28;20273;-59
2022/12/06 07:28:25;;;;;;;11.43;8.48;;;;;;;;;;5038451;28;20239;-59
2022/12/06 07:30:51;;;;;;;10.73;7.68;;;;;;;;;;5038896;28;20205;-59
2022/12/06 07:33:18;;;;;;;11.65;7.82;;;;;;;;;;5037057;28;20206;-59
2022/12/06 07:35:44;;;;;;;7.85;6.97;;;;;;;;;;5037840;28;20403;-59
2022/12/06 07:38:12;;;;;;;8.77;7.85;;;;;;;;;;5036751;28;20233;-59
2022/12/06 07:40:38;;;;;;;8.50;7.60;;;;;;;;;;5037350;28;20474;-59
2022/12/06 07:45:48;;;;;;;8.15;7.30;;;;;;;;;;5032350;28;20209;-59
2022/12/06 07:48:14;;;;;;;12.70;8.57;;;;;;;;;;5037246;28;20228;-59
2022/12/06 07:50:41;;;;;;;10.07;7.85;;;;;;;;;;5038396;28;20206;-59
2022/12/06 07:53:07;;;;;;;10.30;7.65;;;;;;;;;;5038182;28;20397;-57
2022/12/06 07:55:35;;;;;;;8.77;7.40;;;;;;;;;;5037774;28;20220;-59
2022/12/06 07:58:01;;;;;;;8.70;7.25;;;;;;;;;;5038159;28;20240;-59
2022/12/06 08:00:27;;;;;;;11.15;7.35;;;;;;;;;;5038636;28;20206;-59
2022/12/06 08:02:54;;;;;;;9.48;8.07;;;;;;;;;;5037538;28;20205;-58
2022/12/06 08:05:20;;;;;;;11.60;7.70;;;;;;;;;;5038268;28;20206;-58
2022/12/06 08:07:46;;;;;;;9.70;7.50;;;;;;;;;;5037556;28;20390;-59
2022/12/06 08:10:12;;;;;;;8.82;7.65;;;;;;;;;;5038248;28;20206;-59
2022/12/06 08:12:40;;;;;;;8.65;7.70;;;;;;;;;;5037548;28;20434;-59
2022/12/06 08:15:11;;;;;;;13.25;7.65;;;;;;;;;;5037702;28;20210;-59
2022/12/06 08:17:38;;;;;;;8.35;7.35;;;;;;;;;;5037664;28;20271;-59
2022/12/06 08:20:05;;;;;;;8.35;6.88;;;;;;;;;;5037414;28;20225;-59
2022/12/06 08:22:31;;;;;;;8.73;7.82;;;;;;;;;;5037832;28;20206;-59
2022/12/06 08:24:58;;;;;;;8.40;7.13;;;;;;;;;;5038006;28;20228;-59
2022/12/06 08:27:24;;;;;;;9.13;7.18;;;;;;;;;;5037892;28;20222;-59
2022/12/06 08:29:52;;;;;;;8.07;7.25;;;;;;;;;;5037753;28;20206;-59
2022/12/06 08:32:18;;;;;;;8.75;6.85;;;;;;;;;;5037582;28;20221;-59
2022/12/06 08:34:44;;;;;;;9.18;7.25;;;;;;;;;;5036302;28;20210;-58
2022/12/06 08:37:11;;;;;;;7.53;6.85;;;;;;;;;;5036709;28;20206;-59
2022/12/06 08:39:37;;;;;;;14.77;6.70;;;;;;;;;;5034203;28;20214;-58
2022/12/06 08:42:05;;;;;;;8.52;6.75;;;;;;;;;;5036804;28;20209;-57
2022/12/06 08:44:32;;;;;;;7.32;6.63;;;;;;;;;;5037157;28;20545;-58
2022/12/06 08:47:00;;;;;;;8.63;6.60;;;;;;;;;;5037389;28;20206;-58
2022/12/06 08:49:27;;;;;;;7.47;6.72;;;;;;;;;;5035914;28;20460;-57
2022/12/06 08:51:53;;;;;;;7.90;6.88;;;;;;;;;;5036970;28;20216;-58
2022/12/06 08:54:21;;;;;;;10.63;8.10;;;;;;;;;;5036374;28;20209;-55
2022/12/06 08:56:47;;;;;;;8.38;6.80;;;;;;;;;;5036633;28;20235;-58
2022/12/06 08:59:14;;;;;;;13.65;7.00;;;;;;;;;;5036930;28;20229;-58
2022/12/06 09:01:40;;;;;;;8.68;7.47;;;;;;;;;;5036953;28;20210;-58
2022/12/06 09:04:09;;;;;;;7.50;6.55;;;;;;;;;;5036226;28;20408;-57
2022/12/06 09:06:36;;;;;;;9.60;7.40;;;;;;;;;;5036327;28;20210;-57
2022/12/06 09:09:03;;;;;;;10.85;6.50;;;;;;;;;;5036912;28;20206;-59
2022/12/06 09:11:29;;;;;;;9.23;7.38;;;;;;;;;;5036476;28;20237;-58
2022/12/06 09:13:55;;;;;;;8.40;7.25;;;;;;;;;;5036612;28;20212;-57
2022/12/06 09:16:23;;;;;;;8.98;6.53;;;;;;;;;;5036952;28;20206;-58
2022/12/06 09:18:51;;;;;;;9.32;7.00;;;;;;;;;;5036000;28;20448;-58
2022/12/06 09:21:19;;;;;;;9.75;6.78;;;;;;;;;;5035927;28;20222;-58
2022/12/06 09:23:46;;;;;;;12.15;7.07;;;;;;;;;;5036846;28;20281;-58
2022/12/06 09:26:12;;;;;;;9.90;6.57;;;;;;;;;;5036210;28;20210;-58
2022/12/06 09:28:40;;;;;;;7.80;6.32;;;;;;;;;;5036103;28;20236;-58
2022/12/06 09:31:07;;;;;;;8.27;6.57;;;;;;;;;;5036819;28;20492;-57
2022/12/06 09:33:33;;;;;;;12.60;6.80;;;;;;;;;;5035718;28;20486;-57
2022/12/06 09:36:02;;;;;;;7.88;6.38;;;;;;;;;;5036456;28;20516;-57
2022/12/06 09:38:31;;;;;;;7.53;6.40;;;;;;;;;;5035970;28;20261;-56
2022/12/06 09:41:01;;;;;;;7.05;6.35;;;;;;;;;;5036465;28;20418;-58
2022/12/06 09:43:36;;;;;;;18.10;6.70;;;;;;;;;;5036994;28;20206;-58
2022/12/06 09:46:10;;;;;;;13.20;7.18;;;;;;;;;;5031049;28;20380;-56
2022/12/06 09:48:46;;;;;;;7.65;6.63;;;;;;;;;;5025433;28;20208;-58
2022/12/06 09:51:20;;;;;;;9.57;6.80;;;;;;;;;;5035740;28;20413;-58
2022/12/06 09:53:55;;;;;;;15.57;7.13;;;;;;;;;;5035706;28;20202;-56
2022/12/06 09:56:24;;;;;;;7.43;6.70;;;;;;;;;;5036608;28;20536;-57
2022/12/06 09:58:57;;;;;;;8.50;6.50;;;;;;;;;;5035269;28;20259;-57
2022/12/06 10:01:29;;;;;;;6.07;5.60;;;;;;;;;;5036308;28;20413;-58
2022/12/06 10:04:02;;;;;;;6.80;6.20;;;;;;;;;;5035076;28;20612;-59
2022/12/06 10:06:31;;;;;;;9.40;6.28;;;;;;;;;;5036092;28;20542;-57
2022/12/06 10:09:05;;;;;;;7.35;6.57;;;;;;;;;;5035471;28;20206;-58
2022/12/06 10:11:39;;;;;;;12.35;6.30;;;;;;;;;;5036247;28;20236;-58
2022/12/06 10:14:12;;;;;;;6.90;6.30;;;;;;;;;;5035912;28;20209;-57
2022/12/06 10:16:43;;;;;;;7.70;6.35;;;;;;;;;;5035686;28;20224;-58
2022/12/06 10:19:17;;;;;;;10.52;6.55;;;;;;;;;;5026801;28;20225;-59
2022/12/06 10:21:51;;;;;;;6.93;5.70;;;;;;;;;;5035762;28;20210;-57
2022/12/06 10:24:24;;;;;;;7.20;6.22;;;;;;;;;;5036443;28;20225;-58
2022/12/06 10:26:52;;;;;;;10.32;7.20;;;;;;;;;;5035802;28;20234;-58
2022/12/06 10:29:19;;;;;;;10.25;7.55;;;;;;;;;;5035369;28;20249;-57
2022/12/06 10:31:51;;;;;;;14.32;7.85;;;;;;;;;;5034907;28;20237;-59
2022/12/06 10:34:20;;;;;;;14.73;7.80;;;;;;;;;;5038559;28;20210;-58
2022/12/06 10:36:51;;;;;;;12.80;8.13;;;;;;;;;;5038399;28;20209;-58
2022/12/06 10:39:21;;;;;;;10.05;7.35;;;;;;;;;;5038610;28;20640;-58
2022/12/06 10:41:54;;;;;;;11.43;7.50;;;;;;;;;;5039019;28;20209;-58
2022/12/06 10:44:25;;;;;;;9.77;7.05;;;;;;;;;;5038826;28;20620;-57
2022/12/06 10:47:05;;;;;;;10.90;7.15;;;;;;;;;;5038132;28;20313;-58
2022/12/06 10:49:41;;;;;;;10.02;7.28;;;;;;;;;;5038665;28;20460;-58
2022/12/06 10:52:17;;;;;;;12.77;7.60;;;;;;;;;;5038578;28;20446;-58
2022/12/06 10:54:46;;;;;;;10.48;7.05;;;;;;;;;;5036591;28;20311;-57
2022/12/06 10:57:16;;;;;;;8.38;7.18;;;;;;;;;;5039282;28;20505;-58
2022/12/06 10:59:50;;;;;;;12.55;7.22;;;;;;;;;;5034516;28;20552;-56
2022/12/06 11:02:23;;;;;;;9.60;7.60;;;;;;;;;;5039053;28;20527;-58
2022/12/06 11:04:50;;;;;;;8.88;7.15;;;;;;;;;;5037733;28;20308;-58
2022/12/06 11:07:19;;;;;;;9.68;7.07;;;;;;;;;;5038150;28;20278;-58
2022/12/06 11:09:48;;;;;;;7.70;6.90;;;;;;;;;;5039063;28;20454;-57
2022/12/06 11:12:21;;;;;;;8.38;7.55;;;;;;;;;;5039184;28;20505;-58
2022/12/06 11:14:49;;;;;;;8.98;6.97;;;;;;;;;;5037873;28;20525;-58
2022/12/06 11:17:18;;;;;;;7.18;6.53;;;;;;;;;;5038149;28;20405;-58
2022/12/06 11:19:45;;;;;;;8.32;7.18;;;;;;;;;;5037777;28;20545;-61
2022/12/06 11:22:16;;;;;;;7.93;7.13;;;;;;;;;;5038277;28;20450;-61
2022/12/06 11:24:46;;;;;;;9.70;7.47;;;;;;;;;;5038140;28;20322;-60
2022/12/06 11:27:14;;;;;;;11.38;7.93;;;;;;;;;;5038399;28;20210;-61
2022/12/06 11:29:42;;;;;;;12.20;7.93;;;;;;;;;;5037923;28;20410;-60
2022/12/06 11:32:09;;;;;;;10.80;7.78;;;;;;;;;;5037769;28;20482;-61
2022/12/06 11:34:38;;;;;;;9.63;7.63;;;;;;;;;;5037315;28;20453;-60
2022/12/06 11:37:05;;;;;;;11.32;8.48;;;;;;;;;;5037705;28;20206;-60
2022/12/06 11:39:33;;;;;;;12.23;9.02;;;;;;;;;;5037208;28;20236;-58
2022/12/06 11:42:01;;;;;;;12.88;10.07;;;;;;;;;;5037023;28;20206;-59
2022/12/06 11:44:29;;;;;;;11.55;9.77;;;;;;;;;;5037109;28;20405;-59
2022/12/06 11:46:58;;;;;;;12.98;10.20;;;;;;;;;;5037243;28;20210;-58
2022/12/06 11:49:27;;;;;;;14.05;10.57;;;;;;;;;;5037534;28;20403;-58
2022/12/06 11:51:54;;;;;;;13.35;10.55;;;;;;;;;;5036712;28;20272;-57
2022/12/06 11:54:22;;;;;;;10.70;9.55;;;;;;;;;;5036805;28;20213;-58
2022/12/06 11:56:48;;;;;;;13.18;10.38;;;;;;;;;;5037544;28;20301;-58
2022/12/06 11:59:23;;;;;;;12.65;9.63;;;;;;;;;;5036691;28;20525;-58
2022/12/06 12:01:50;;;;;;;12.52;9.93;;;;;;;;;;5037741;28;20213;-60
2022/12/06 12:04:37;;;;;;;11.85;9.48;;;;;;;;;;5036949;28;20213;-58
2022/12/06 12:07:10;;;;;;;10.32;8.77;;;;;;;;;;5038133;27;20216;-57
2022/12/06 12:09:45;;;;;;;16.38;8.98;;;;;;;;;;5037504;28;20229;-58
2022/12/06 12:12:14;;;;;;;10.30;8.85;;;;;;;;;;5037437;28;20209;-56
2022/12/06 12:14:41;;;;;;;11.18;9.05;;;;;;;;;;5037166;28;20209;-57
2022/12/06 12:17:15;;;;;;;11.50;9.10;;;;;;;;;;5037241;28;20225;-57
2022/12/06 12:19:45;;;;;;;8.48;7.60;;;;;;;;;;5037287;28;20240;-59
2022/12/06 12:22:22;;;;;;;9.65;7.85;;;;;;;;;;5036853;28;20210;-58
2022/12/06 12:24:49;;;;;;;8.18;7.30;;;;;;;;;;5036514;28;20209;-58
2022/12/06 12:27:31;;;;;;;7.68;6.95;;;;;;;;;;5037407;28;20208;-58
2022/12/06 12:30:15;;;;;;;8.73;6.32;;;;;;;;;;5037263;28;20230;-58
2022/12/06 12:32:42;;;;;;;8.40;6.85;;;;;;;;;;5025360;28;20210;-57
2022/12/06 12:35:24;;;;;;;7.50;6.68;;;;;;;;;;5037323;28;20416;-57
2022/12/06 12:37:52;;;;;;;10.75;7.88;;;;;;;;;;5036797;28;20206;-57
2022/12/06 12:40:22;;;;;;;8.02;7.15;;;;;;;;;;5036185;28;20239;-57
2022/12/06 12:42:48;;;;;;;8.43;6.90;;;;;;;;;;5038010;28;20202;-58
2022/12/06 12:45:18;;;;;;;7.28;6.47;;;;;;;;;;5036975;28;20322;-58
2022/12/06 12:47:55;;;;;;;8.20;6.60;;;;;;;;;;5035806;28;20202;-58
2022/12/06 12:50:22;;;;;;;7.30;6.00;;;;;;;;;;5037272;28;20233;-58
2022/12/06 12:52:49;;;;;;;8.65;7.20;;;;;;;;;;5036505;28;20241;-58
2022/12/06 12:55:18;;;;;;;6.80;6.18;;;;;;;;;;5035300;28;20420;-58
2022/12/06 12:57:45;;;;;;;6.40;5.80;;;;;;;;;;5037474;28;20237;-56
2022/12/06 13:00:14;;;;;;;5.82;5.20;;;;;;;;;;5036361;28;20233;-56
2022/12/06 13:02:41;;;;;;;6.13;5.53;;;;;;;;;;5036022;28;20216;-57
2022/12/06 13:05:14;;;;;;;5.75;5.15;;;;;;;;;;5036455;28;20210;-60
2022/12/06 13:07:41;;;;;;;5.10;4.63;;;;;;;;;;5035909;28;20211;-58
2022/12/06 13:10:15;;;;;;;5.18;4.68;;;;;;;;;;5036454;28;20226;-58
2022/12/06 13:12:44;;;;;;;5.15;4.25;;;;;;;;;;5036928;28;20212;-58
2022/12/06 13:15:14;;;;;;;4.05;3.70;;;;;;;;;;5036523;28;20214;-59
2022/12/06 13:17:42;;;;;;;5.22;4.05;;;;;;;;;;5036695;28;20540;-59
2022/12/06 13:20:17;;;;;;;5.75;4.18;;;;;;;;;;5036613;28;20339;-58
2022/12/06 13:22:44;;;;;;;4.40;4.07;;;;;;;;;;5036712;28;20460;-58
2022/12/06 13:25:11;;;;;;;4.28;3.95;;;;;;;;;;5036296;28;20221;-57
2022/12/06 13:27:40;;;;;;;4.40;4.00;;;;;;;;;;5036620;28;20429;-58
2022/12/06 13:30:12;;;;;;;4.72;4.07;;;;;;;;;;5036543;28;20423;-57
2022/12/06 13:32:41;;;;;;;5.90;4.45;;;;;;;;;;5035980;28;20541;-56
2022/12/06 13:35:13;;;;;;;5.70;4.30;;;;;;;;;;5035791;28;20277;-58
2022/12/06 13:37:44;;;;;;;5.68;4.45;;;;;;;;;;5035944;28;20272;-56
2022/12/06 13:40:25;;;;;;;4.25;3.88;;;;;;;;;;5037008;28;20316;-57
2022/12/06 13:42:52;;;;;;;4.38;3.97;;;;;;;;;;5032772;28;20397;-57
2022/12/06 13:45:40;;;;;;;5.90;5.32;;;;;;;;;;5036045;28;20279;-59
2022/12/06 13:48:21;;;;;;;5.18;4.65;;;;;;;;;;5035560;28;20218;-59
2022/12/06 13:50:50;;;;;;;5.38;4.97;;;;;;;;;;5023009;28;20280;-58
2022/12/06 13:53:16;;;;;;;6.55;5.95;;;;;;;;;;5035209;28;20245;-58
2022/12/06 13:55:50;;;;;;;4.25;3.95;;;;;;;;;;5023842;28;20209;-58
2022/12/06 13:58:35;;;;;;;5.47;4.82;;;;;;;;;;5036214;28;20201;-58
2022/12/06 14:01:03;;;;;;;5.65;4.88;;;;;;;;;;5035599;28;20213;-57
2022/12/06 14:03:39;;;;;;;5.47;4.97;;;;;;;;;;5036287;28;20233;-58
2022/12/06 14:06:06;;;;;;;5.18;4.78;;;;;;;;;;5034972;28;20459;-60
2022/12/06 14:08:37;;;;;;;4.78;4.38;;;;;;;;;;5035430;28;20210;-59
2022/12/06 14:11:07;;;;;;;6.38;5.30;;;;;;;;;;5035645;28;20244;-60
2022/12/06 14:13:34;;;;;;;5.40;4.70;;;;;;;;;;5035535;28;20241;-60
2022/12/06 14:16:00;;;;;;;7.25;6.55;;;;;;;;;;5035113;28;20240;-60
2022/12/06 14:18:28;;;;;;;5.95;5.45;;;;;;;;;;5035862;28;20525;-60
2022/12/06 14:20:56;;;;;;;5.88;5.30;;;;;;;;;;5035171;28;20233;-56
2022/12/06 14:23:24;;;;;;;7.30;6.65;;;;;;;;;;5035590;28;20240;-59
2022/12/06 14:25:50;;;;;;;7.30;6.47;;;;;;;;;;5035836;28;20237;-58
2022/12/06 14:28:17;;;;;;;5.47;5.07;;;;;;;;;;5035009;28;20236;-58
2022/12/06 14:30:45;;;;;;;5.85;5.25;;;;;;;;;;5035101;28;20227;-56
2022/12/06 14:33:17;;;;;;;10.95;6.15;;;;;;;;;;5034755;28;20521;-56
2022/12/06 14:35:48;;;;;;;10.23;8.13;;;;;;;;;;5034758;28;20253;-57
2022/12/06 14:38:20;;;;;;;7.57;6.82;;;;;;;;;;5034126;28;20558;-58
2022/12/06 14:43:31;;;;;;;5.78;5.30;;;;;;;;;;5031937;28;20585;-58
2022/12/06 14:45:58;;;;;;;5.65;5.25;;;;;;;;;;5034455;28;20443;-57
2022/12/06 14:48:25;;;;;;;7.47;6.00;;;;;;;;;;5035538;28;20306;-56
2022/12/06 14:50:59;;;;;;;6.30;5.75;;;;;;;;;;5034433;28;20506;-56
2022/12/06 14:53:28;;;;;;;7.95;6.80;;;;;;;;;;5034747;28;20210;-58
2022/12/06 14:55:55;;;;;;;7.25;6.55;;;;;;;;;;5035775;28;20443;-57
2022/12/06 14:58:23;;;;;;;8.85;6.30;;;;;;;;;;5034889;28;20205;-58
2022/12/06 15:00:53;;;;;;;4.97;4.68;;;;;;;;;;5034443;28;20401;-57
2022/12/06 15:03:29;;;;;;;6.88;5.07;;;;;;;;;;5034335;28;20254;-58